createdAt,value
2023-01-09T00:00:22.472Z,98090.30
2023-01-09T00:05:49.969Z,98083.23
2023-01-09T00:10:57.898Z,98078.58
2023-01-09T00:16:05.921Z,98075.45
2023-01-09T00:21:14.708Z,98073.45
2023-01-09T00:26:23.182Z,98067.59
2023-01-09T00:31:31.169Z,98063.42
2023-01-09T00:36:38.618Z,98062.77
2023-01-09T00:41:50.938Z,98062.57
2023-01-09T00:47:11.311Z,98068.48
2023-01-09T00:52:21.126Z,98067.88
2023-01-09T00:57:32.192Z,98062.48
2023-01-09T01:02:39.701Z,98062.27
2023-01-09T01:07:48.372Z,98060.86
2023-01-09T01:12:57.483Z,98054.65
2023-01-09T01:18:09.481Z,98052.61
2023-01-09T01:23:17.043Z,98044.88
2023-01-09T01:28:24.802Z,98035.51
2023-01-09T01:33:32.256Z,98026.52
2023-01-09T01:38:39.862Z,98021.70
2023-01-09T01:43:55.640Z,98017.22
2023-01-09T01:49:09.354Z,98020.52
2023-01-09T01:54:23.166Z,98008.15
2023-01-09T02:04:39.873Z,98001.40
2023-01-09T02:09:44.623Z,98004.13
2023-01-09T02:14:50.286Z,98011.27
2023-01-09T02:20:30.255Z,97995.96
2023-01-09T02:25:56.550Z,97988.51
2023-01-09T02:31:10.719Z,97992.64
2023-01-09T02:36:23.602Z,97990.00
2023-01-09T02:41:37.556Z,97985.70
2023-01-09T02:46:41.489Z,97993.07
2023-01-09T02:51:52.629Z,97981.27
2023-01-09T03:02:51.260Z,97983.45
2023-01-09T03:08:04.851Z,97998.17
2023-01-09T03:13:18.002Z,98008.27
2023-01-09T03:18:30.724Z,98005.86
2023-01-09T03:23:53.797Z,97990.42
2023-01-09T03:29:03.974Z,97987.53
2023-01-09T03:34:11.420Z,97982.89
2023-01-09T03:39:19.083Z,97979.02
2023-01-09T03:44:27.618Z,97967.09
2023-01-09T03:49:36.300Z,97960.07
2023-01-09T03:54:45.922Z,97955.02
2023-01-09T03:59:53.898Z,97949.91
2023-01-09T04:05:02.730Z,97943.13
2023-01-09T04:10:13.312Z,97926.15
2023-01-09T04:15:20.960Z,97911.77
2023-01-09T04:20:29.581Z,97907.64
2023-01-09T04:25:37.651Z,97897.21
2023-01-09T04:30:45.531Z,97896.88
2023-01-09T04:35:52.939Z,97899.48
2023-01-09T04:41:02.115Z,97902.75
2023-01-09T04:46:10.309Z,97892.66
2023-01-09T04:51:17.742Z,97891.07
2023-01-09T04:56:25.932Z,97883.98
2023-01-09T05:01:33.354Z,97883.93
2023-01-09T05:06:41.764Z,97871.36
2023-01-09T05:11:53.413Z,97867.26
2023-01-09T05:17:01.492Z,97870.46
2023-01-09T05:22:09.393Z,97864.95
2023-01-09T05:27:17.203Z,97858.07
2023-01-09T05:32:24.924Z,97860.17
2023-01-09T05:37:32.365Z,97861.48
2023-01-09T05:42:39.837Z,97863.96
2023-01-09T05:47:48.661Z,97862.00
2023-01-09T05:52:57.452Z,97859.10
2023-01-09T05:58:05.326Z,97848.20
2023-01-09T06:03:12.738Z,97842.87
2023-01-09T06:08:20.876Z,97840.90
2023-01-09T06:23:10.015Z,97831.55
2023-01-09T06:28:18.783Z,97828.17
2023-01-09T06:33:27.766Z,97827.59
2023-01-09T06:38:35.391Z,97825.15
2023-01-09T06:43:43.199Z,97824.83
2023-01-09T06:48:50.593Z,97821.44
2023-01-09T06:54:01.297Z,97813.15
2023-01-09T06:59:10.310Z,97811.88
2023-01-09T07:04:22.276Z,97803.45
2023-01-09T07:09:31.848Z,97807.43
2023-01-09T07:14:40.065Z,97803.04
2023-01-09T07:19:47.380Z,97806.98
2023-01-09T07:24:56.286Z,97812.94
2023-01-09T07:30:07.245Z,97812.95
2023-01-09T07:35:15.255Z,97816.16
2023-01-09T07:40:22.990Z,97813.25
2023-01-09T07:45:31.133Z,97809.96
2023-01-09T07:50:38.596Z,97814.88
2023-01-09T07:55:45.527Z,97814.60
2023-01-09T08:04:17.556Z,97807.48
2023-01-09T08:09:26.496Z,97807.64
2023-01-09T08:14:36.428Z,97803.49
2023-01-09T08:19:44.705Z,97794.40
2023-01-09T08:24:52.120Z,97788.65
2023-01-09T08:30:00.165Z,97789.15
2023-01-09T08:35:09.178Z,97786.40
2023-01-09T08:40:18.991Z,97785.52
2023-01-09T08:45:44.689Z,97783.61
2023-01-09T08:50:55.317Z,97783.80
2023-01-09T08:56:02.966Z,97797.76
2023-01-09T09:01:11.822Z,97803.47
2023-01-09T09:06:21.229Z,97799.14
2023-01-09T09:11:30.622Z,97790.30
2023-01-09T09:16:38.214Z,97780.20
2023-01-09T09:21:45.856Z,97781.62
2023-01-09T09:26:53.435Z,97785.04
2023-01-09T09:32:02.083Z,97784.67
2023-01-09T09:37:10.373Z,97776.77
2023-01-09T09:42:58.044Z,97774.91
2023-01-09T09:48:20.631Z,97770.88
2023-01-09T09:53:33.362Z,97761.36
2023-01-09T09:58:43.469Z,97761.83
2023-01-09T10:03:53.624Z,97758.43
2023-01-09T10:09:10.160Z,97753.52
2023-01-09T10:14:24.374Z,97752.26
2023-01-09T10:19:47.926Z,97741.09
2023-01-09T10:25:14.069Z,97735.04
2023-01-09T10:30:30.365Z,97726.10
2023-01-09T10:36:12.956Z,97716.53
2023-01-09T10:41:26.353Z,97713.02
2023-01-09T10:46:40.741Z,97715.18
2023-01-09T10:51:50.789Z,97695.35
2023-01-09T10:57:02.839Z,97686.13
2023-01-09T11:02:25.961Z,97677.92
2023-01-09T11:07:38.209Z,97677.52
2023-01-09T11:12:45.947Z,97673.95
2023-01-09T11:17:55.943Z,97674.09
2023-01-09T11:23:03.189Z,97665.70
2023-01-09T11:28:13.492Z,97659.38
2023-01-09T11:33:25.798Z,97655.92
2023-01-09T11:38:46.633Z,97664.38
2023-01-09T11:44:00.717Z,97661.39
2023-01-09T11:49:22.905Z,97650.89
2023-01-09T11:54:33.371Z,97650.60
2023-01-09T12:04:41.274Z,97655.02
2023-01-09T12:09:56.429Z,97655.02
2023-01-09T12:15:21.127Z,97654.48
2023-01-09T12:20:44.651Z,97659.67
2023-01-09T12:28:49.425Z,97659.37
2023-01-09T12:34:05.795Z,97662.31
2023-01-09T12:39:26.066Z,97660.53
2023-01-09T12:45:00.057Z,97658.80
2023-01-09T12:50:21.802Z,97654.69
2023-01-09T12:55:34.657Z,97652.71
2023-01-09T13:00:45.459Z,97646.27
2023-01-09T13:05:54.679Z,97643.67
2023-01-09T13:11:19.487Z,97646.73
2023-01-09T13:16:32.276Z,97647.66
2023-01-09T13:21:41.640Z,97643.55
2023-01-09T13:26:52.326Z,97643.11
2023-01-09T13:32:30.568Z,97642.74
2023-01-09T13:37:40.469Z,97641.86
2023-01-09T13:42:56.468Z,97641.65
2023-01-09T13:48:40.920Z,97647.48
2023-01-09T13:53:49.624Z,97659.17
2023-01-09T13:59:04.263Z,97666.70
2023-01-09T14:04:39.313Z,97681.55
2023-01-09T14:09:50.931Z,97688.95
2023-01-09T14:15:02.425Z,97690.64
2023-01-09T14:20:25.117Z,97700.02
2023-01-09T14:25:33.816Z,97710.98
2023-01-09T14:31:02.114Z,97722.67
2023-01-09T14:36:15.841Z,97725.16
2023-01-09T14:41:45.929Z,97719.70
2023-01-09T14:46:55.741Z,97720.65
2023-01-09T14:52:09.636Z,97723.11
2023-01-09T14:57:34.258Z,97719.61
2023-01-09T15:02:42.786Z,97723.96
2023-01-09T15:07:55.835Z,97725.54
2023-01-09T15:13:06.656Z,97733.59
2023-01-09T15:18:23.720Z,97733.55
2023-01-09T15:23:32.636Z,97733.75
2023-01-09T15:28:45.100Z,97747.80
2023-01-09T15:33:54.188Z,97758.46
2023-01-09T15:39:02.311Z,97765.98
2023-01-09T15:44:17.929Z,97766.63
2023-01-09T15:49:25.921Z,97781.18
2023-01-09T15:54:35.558Z,97789.06
2023-01-09T15:59:42.770Z,97802.00
2023-01-09T16:04:51.656Z,97814.19
2023-01-09T16:09:59.424Z,97817.33
2023-01-09T16:15:08.226Z,97824.50
2023-01-09T16:20:28.092Z,97832.59
2023-01-09T16:25:37.140Z,97833.80
2023-01-09T16:30:55.112Z,97827.23
2023-01-09T16:36:03.626Z,97830.73
2023-01-09T16:41:33.323Z,97826.14
2023-01-09T16:46:43.775Z,97823.40
2023-01-09T16:51:51.628Z,97829.48
2023-01-09T16:56:59.469Z,97833.96
2023-01-09T17:02:12.189Z,97835.94
2023-01-09T17:07:20.733Z,97831.24
2023-01-09T17:12:28.534Z,97847.73
2023-01-09T17:17:36.142Z,97859.39
2023-01-09T17:22:43.378Z,97870.08
2023-01-09T17:28:08.002Z,97870.92
2023-01-09T17:33:19.128Z,97875.60
2023-01-09T17:38:26.645Z,97882.52
2023-01-09T17:43:33.626Z,97893.82
2023-01-09T17:48:40.629Z,97899.50
2023-01-09T17:53:46.033Z,97904.71
2023-01-09T18:02:59.909Z,97916.34
2023-01-09T18:08:10.361Z,97920.89
2023-01-09T18:13:20.244Z,97921.71
2023-01-09T18:18:28.010Z,97916.54
2023-01-09T18:23:36.537Z,97919.63
2023-01-09T18:28:44.599Z,97923.98
2023-01-09T18:33:57.146Z,97930.55
2023-01-09T18:39:09.811Z,97938.66
2023-01-09T18:44:22.897Z,97945.30
2023-01-09T18:49:32.255Z,97944.11
2023-01-09T18:54:42.885Z,97945.53
2023-01-09T18:59:50.244Z,97953.31
2023-01-09T19:04:57.851Z,97958.16
2023-01-09T19:10:06.309Z,97964.00
2023-01-09T19:15:15.934Z,97967.25
2023-01-09T19:20:23.950Z,97959.02
2023-01-09T19:25:34.719Z,97965.31
2023-01-09T19:40:33.064Z,97966.89
2023-01-09T19:45:39.611Z,97961.75
2023-01-09T19:50:44.417Z,97966.04
2023-01-09T19:55:49.227Z,97965.23
2023-01-09T20:00:55.770Z,97975.73
2023-01-09T20:06:05.158Z,97974.43
2023-01-09T20:11:09.670Z,97980.71
2023-01-09T20:16:17.301Z,97993.48
2023-01-09T20:21:25.376Z,97993.89
2023-01-09T20:26:32.669Z,97991.02
2023-01-09T20:31:37.524Z,97985.30
2023-01-09T20:36:42.153Z,97982.88
2023-01-09T20:41:46.472Z,97984.55
2023-01-09T20:46:52.996Z,97985.16
2023-01-09T20:51:58.257Z,97982.48
2023-01-09T20:57:03.020Z,97988.81
2023-01-09T21:02:12.877Z,97997.95
2023-01-09T21:07:17.216Z,97992.27
2023-01-09T21:12:35.199Z,98001.19
2023-01-09T21:17:40.507Z,97999.19
2023-01-09T21:22:45.358Z,98008.88
2023-01-09T21:27:50.559Z,98015.61
2023-01-09T21:32:56.251Z,98027.88
2023-01-09T21:38:02.375Z,98034.52
2023-01-09T21:43:26.321Z,98043.10
2023-01-09T21:48:30.726Z,98049.02
2023-01-09T21:53:34.855Z,98053.17
2023-01-09T21:58:39.160Z,98051.40
2023-01-09T22:03:43.369Z,98056.84
2023-01-09T22:08:48.039Z,98067.23
2023-01-09T22:13:53.868Z,98074.19
2023-01-09T22:18:59.376Z,98075.44
2023-01-09T22:24:04.680Z,98068.13
2023-01-09T22:29:09.903Z,98068.17
2023-01-09T22:34:17.709Z,98070.50
2023-01-09T22:39:25.511Z,98072.88
2023-01-09T22:44:30.672Z,98074.02
2023-01-09T22:49:52.021Z,98069.77
2023-01-09T22:54:58.319Z,98074.03
2023-01-09T23:00:08.285Z,98073.30
2023-01-09T23:05:12.345Z,98077.30
2023-01-09T23:10:17.148Z,98078.52
2023-01-09T23:15:22.273Z,98078.90
2023-01-09T23:20:27.537Z,98077.60
2023-01-09T23:25:31.765Z,98079.59
2023-01-09T23:30:36.617Z,98083.11
2023-01-09T23:35:41.102Z,98080.34
2023-01-09T23:40:46.295Z,98078.60
2023-01-09T23:45:52.527Z,98082.90
2023-01-09T23:50:58.444Z,98090.08
2023-01-09T23:56:02.874Z,98092.71
